sensor_id;sensor_type;location;lat;lon;timestamp;P1;durP1;ratioP1;P2;durP2;ratioP2
24145;SDS011;12308;50.948;4.706;2022-10-16T00:01:45;6.38;;;2.10;;
24145;SDS011;12308;50.948;4.706;2022-10-16T00:04:11;6.28;;;2.10;;
24145;SDS011;12308;50.948;4.706;2022-10-16T00:06:37;3.35;;;1.98;;
24145;SDS011;12308;50.948;4.706;2022-10-16T00:09:03;5.32;;;2.30;;
24145;SDS011;12308;50.948;4.706;2022-10-16T00:11:31;4.03;;;2.05;;
24145;SDS011;12308;50.948;4.706;2022-10-16T00:13:59;6.65;;;1.80;;
24145;SDS011;12308;50.948;4.706;2022-10-16T00:16:27;4.63;;;1.77;;
24145;SDS011;12308;50.948;4.706;2022-10-16T00:18:53;3.72;;;1.90;;
24145;SDS011;12308;50.948;4.706;2022-10-16T00:21:20;4.28;;;1.98;;
24145;SDS011;12308;50.948;4.706;2022-10-16T00:23:51;3.25;;;1.60;;
24145;SDS011;12308;50.948;4.706;2022-10-16T00:26:21;5.22;;;1.60;;
24145;SDS011;12308;50.948;4.706;2022-10-16T00:28:48;8.50;;;1.60;;
24145;SDS011;12308;50.948;4.706;2022-10-16T00:31:15;6.47;;;1.63;;
24145;SDS011;12308;50.948;4.706;2022-10-16T00:33:42;7.80;;;1.80;;
24145;SDS011;12308;50.948;4.706;2022-10-16T00:36:10;2.38;;;1.52;;
24145;SDS011;12308;50.948;4.706;2022-10-16T00:38:38;3.83;;;1.60;;
24145;SDS011;12308;50.948;4.706;2022-10-16T00:41:04;4.47;;;1.48;;
24145;SDS011;12308;50.948;4.706;2022-10-16T00:43:50;2.50;;;1.50;;
24145;SDS011;12308;50.948;4.706;2022-10-16T00:46:40;2.10;;;1.33;;
24145;SDS011;12308;50.948;4.706;2022-10-16T00:49:14;4.68;;;1.50;;
24145;SDS011;12308;50.948;4.706;2022-10-16T00:54:09;2.85;;;1.73;;
24145;SDS011;12308;50.948;4.706;2022-10-16T00:56:40;2.08;;;1.40;;
24145;SDS011;12308;50.948;4.706;2022-10-16T00:59:08;5.95;;;1.73;;
24145;SDS011;12308;50.948;4.706;2022-10-16T01:01:40;5.40;;;1.70;;
24145;SDS011;12308;50.948;4.706;2022-10-16T01:04:06;6.50;;;1.40;;
24145;SDS011;12308;50.948;4.706;2022-10-16T01:07:06;5.40;;;1.70;;
24145;SDS011;12308;50.948;4.706;2022-10-16T01:09:26;1.85;;;1.50;;
24145;SDS011;12308;50.948;4.706;2022-10-16T01:17:41;4.15;;;1.50;;
24145;SDS011;12308;50.948;4.706;2022-10-16T01:20:29;3.42;;;1.40;;
24145;SDS011;12308;50.948;4.706;2022-10-16T01:23:14;4.30;;;1.60;;
24145;SDS011;12308;50.948;4.706;2022-10-16T01:26:12;4.18;;;1.35;;
24145;SDS011;12308;50.948;4.706;2022-10-16T01:29:11;2.95;;;1.65;;
24145;SDS011;12308;50.948;4.706;2022-10-16T01:31:39;2.00;;;1.27;;
24145;SDS011;12308;50.948;4.706;2022-10-16T01:36:56;3.88;;;1.85;;
24145;SDS011;12308;50.948;4.706;2022-10-16T01:39:28;3.92;;;1.50;;
24145;SDS011;12308;50.948;4.706;2022-10-16T01:42:04;7.88;;;1.80;;
24145;SDS011;12308;50.948;4.706;2022-10-16T01:44:41;3.05;;;1.65;;
24145;SDS011;12308;50.948;4.706;2022-10-16T01:47:10;7.70;;;1.77;;
24145;SDS011;12308;50.948;4.706;2022-10-16T01:49:39;2.17;;;1.73;;
24145;SDS011;12308;50.948;4.706;2022-10-16T01:52:07;3.58;;;1.50;;
24145;SDS011;12308;50.948;4.706;2022-10-16T01:54:37;5.32;;;1.80;;
24145;SDS011;12308;50.948;4.706;2022-10-16T01:57:05;6.28;;;2.05;;
24145;SDS011;12308;50.948;4.706;2022-10-16T01:59:33;5.35;;;2.05;;
24145;SDS011;12308;50.948;4.706;2022-10-16T02:02:04;8.23;;;1.92;;
24145;SDS011;12308;50.948;4.706;2022-10-16T02:05:08;7.40;;;1.88;;
24145;SDS011;12308;50.948;4.706;2022-10-16T02:07:30;4.38;;;2.10;;
24145;SDS011;12308;50.948;4.706;2022-10-16T02:09:55;3.38;;;1.90;;
24145;SDS011;12308;50.948;4.706;2022-10-16T02:12:28;2.75;;;1.50;;
24145;SDS011;12308;50.948;4.706;2022-10-16T02:14:57;2.22;;;1.83;;
24145;SDS011;12308;50.948;4.706;2022-10-16T02:17:22;6.13;;;2.25;;
24145;SDS011;12308;50.948;4.706;2022-10-16T02:19:49;2.60;;;1.67;;
24145;SDS011;12308;50.948;4.706;2022-10-16T02:22:36;5.03;;;1.75;;
24145;SDS011;12308;50.948;4.706;2022-10-16T02:30:18;6.32;;;2.05;;
24145;SDS011;12308;50.948;4.706;2022-10-16T02:32:45;3.03;;;1.73;;
24145;SDS011;12308;50.948;4.706;2022-10-16T02:35:12;4.05;;;1.90;;
24145;SDS011;12308;50.948;4.706;2022-10-16T02:37:39;5.05;;;2.20;;
24145;SDS011;12308;50.948;4.706;2022-10-16T02:40:06;3.55;;;1.65;;
24145;SDS011;12308;50.948;4.706;2022-10-16T02:42:34;4.82;;;2.00;;
24145;SDS011;12308;50.948;4.706;2022-10-16T02:45:01;2.58;;;2.03;;
24145;SDS011;12308;50.948;4.706;2022-10-16T02:47:27;5.30;;;2.47;;
24145;SDS011;12308;50.948;4.706;2022-10-16T02:49:53;4.18;;;1.85;;
24145;SDS011;12308;50.948;4.706;2022-10-16T02:52:19;6.65;;;1.95;;
24145;SDS011;12308;50.948;4.706;2022-10-16T02:54:44;5.13;;;2.00;;
24145;SDS011;12308;50.948;4.706;2022-10-16T02:57:10;6.93;;;2.10;;
24145;SDS011;12308;50.948;4.706;2022-10-16T02:59:36;6.88;;;2.35;;
24145;SDS011;12308;50.948;4.706;2022-10-16T03:02:02;4.05;;;2.10;;
24145;SDS011;12308;50.948;4.706;2022-10-16T03:04:28;5.00;;;2.03;;
24145;SDS011;12308;50.948;4.706;2022-10-16T03:06:53;3.17;;;2.03;;
24145;SDS011;12308;50.948;4.706;2022-10-16T03:09:19;4.88;;;2.22;;
24145;SDS011;12308;50.948;4.706;2022-10-16T03:11:45;3.63;;;2.30;;
24145;SDS011;12308;50.948;4.706;2022-10-16T03:14:10;2.95;;;2.20;;
24145;SDS011;12308;50.948;4.706;2022-10-16T03:16:36;8.73;;;2.45;;
24145;SDS011;12308;50.948;4.706;2022-10-16T03:19:01;6.70;;;2.42;;
24145;SDS011;12308;50.948;4.706;2022-10-16T03:21:27;2.85;;;2.22;;
24145;SDS011;12308;50.948;4.706;2022-10-16T03:23:53;5.60;;;2.05;;
24145;SDS011;12308;50.948;4.706;2022-10-16T03:26:18;4.72;;;2.28;;
24145;SDS011;12308;50.948;4.706;2022-10-16T03:28:44;4.78;;;2.13;;
24145;SDS011;12308;50.948;4.706;2022-10-16T03:31:09;7.55;;;2.72;;
24145;SDS011;12308;50.948;4.706;2022-10-16T03:33:35;4.13;;;2.30;;
24145;SDS011;12308;50.948;4.706;2022-10-16T03:36:01;7.57;;;2.55;;
24145;SDS011;12308;50.948;4.706;2022-10-16T03:38:26;5.53;;;2.35;;
24145;SDS011;12308;50.948;4.706;2022-10-16T03:40:52;5.80;;;2.22;;
24145;SDS011;12308;50.948;4.706;2022-10-16T03:43:18;4.93;;;2.25;;
24145;SDS011;12308;50.948;4.706;2022-10-16T03:45:44;6.00;;;2.38;;
24145;SDS011;12308;50.948;4.706;2022-10-16T03:48:09;5.45;;;2.00;;
24145;SDS011;12308;50.948;4.706;2022-10-16T03:50:35;5.50;;;2.58;;
24145;SDS011;12308;50.948;4.706;2022-10-16T03:53:00;6.93;;;2.60;;
24145;SDS011;12308;50.948;4.706;2022-10-16T03:55:26;5.35;;;2.08;;
24145;SDS011;12308;50.948;4.706;2022-10-16T03:57:52;7.43;;;2.22;;
24145;SDS011;12308;50.948;4.706;2022-10-16T04:00:17;6.32;;;2.67;;
24145;SDS011;12308;50.948;4.706;2022-10-16T04:02:44;7.28;;;2.70;;
24145;SDS011;12308;50.948;4.706;2022-10-16T04:05:09;6.28;;;2.75;;
24145;SDS011;12308;50.948;4.706;2022-10-16T04:07:35;4.22;;;2.63;;
24145;SDS011;12308;50.948;4.706;2022-10-16T04:10:01;6.60;;;2.33;;
24145;SDS011;12308;50.948;4.706;2022-10-16T04:12:26;6.00;;;2.30;;
24145;SDS011;12308;50.948;4.706;2022-10-16T04:14:52;6.78;;;2.67;;
24145;SDS011;12308;50.948;4.706;2022-10-16T04:17:18;5.53;;;2.35;;
24145;SDS011;12308;50.948;4.706;2022-10-16T04:19:43;3.88;;;2.35;;
24145;SDS011;12308;50.948;4.706;2022-10-16T04:22:09;7.97;;;3.10;;
24145;SDS011;12308;50.948;4.706;2022-10-16T04:24:34;7.03;;;2.35;;
24145;SDS011;12308;50.948;4.706;2022-10-16T04:27:00;4.30;;;2.58;;
24145;SDS011;12308;50.948;4.706;2022-10-16T04:29:26;6.00;;;2.53;;
24145;SDS011;12308;50.948;4.706;2022-10-16T04:31:51;7.60;;;2.60;;
24145;SDS011;12308;50.948;4.706;2022-10-16T04:34:17;9.82;;;2.70;;
24145;SDS011;12308;50.948;4.706;2022-10-16T04:36:42;9.20;;;2.70;;
24145;SDS011;12308;50.948;4.706;2022-10-16T04:39:08;4.60;;;2.60;;
24145;SDS011;12308;50.948;4.706;2022-10-16T04:41:34;4.28;;;2.63;;
24145;SDS011;12308;50.948;4.706;2022-10-16T04:43:59;5.72;;;2.80;;
24145;SDS011;12308;50.948;4.706;2022-10-16T04:46:25;6.07;;;3.40;;
24145;SDS011;12308;50.948;4.706;2022-10-16T04:48:50;4.05;;;2.45;;
24145;SDS011;12308;50.948;4.706;2022-10-16T04:51:16;9.15;;;2.83;;
24145;SDS011;12308;50.948;4.706;2022-10-16T04:53:43;7.78;;;3.15;;
24145;SDS011;12308;50.948;4.706;2022-10-16T04:56:09;8.50;;;3.17;;
24145;SDS011;12308;50.948;4.706;2022-10-16T04:58:34;7.75;;;2.70;;
24145;SDS011;12308;50.948;4.706;2022-10-16T05:01:00;9.23;;;2.88;;
24145;SDS011;12308;50.948;4.706;2022-10-16T05:03:25;6.97;;;2.95;;
24145;SDS011;12308;50.948;4.706;2022-10-16T05:05:51;5.85;;;3.25;;
24145;SDS011;12308;50.948;4.706;2022-10-16T05:08:17;6.95;;;3.20;;
24145;SDS011;12308;50.948;4.706;2022-10-16T05:10:43;6.82;;;3.20;;
24145;SDS011;12308;50.948;4.706;2022-10-16T05:13:09;8.93;;;3.58;;
24145;SDS011;12308;50.948;4.706;2022-10-16T05:15:35;5.97;;;2.92;;
24145;SDS011;12308;50.948;4.706;2022-10-16T05:18:01;8.00;;;3.13;;
24145;SDS011;12308;50.948;4.706;2022-10-16T05:20:27;5.22;;;3.03;;
24145;SDS011;12308;50.948;4.706;2022-10-16T05:22:52;7.72;;;2.85;;
24145;SDS011;12308;50.948;4.706;2022-10-16T05:25:18;5.32;;;2.80;;
24145;SDS011;12308;50.948;4.706;2022-10-16T05:27:46;6.15;;;3.20;;
24145;SDS011;12308;50.948;4.706;2022-10-16T05:30:13;9.60;;;3.58;;
24145;SDS011;12308;50.948;4.706;2022-10-16T05:32:39;9.38;;;3.25;;
24145;SDS011;12308;50.948;4.706;2022-10-16T05:35:05;10.57;;;3.20;;
24145;SDS011;12308;50.948;4.706;2022-10-16T05:37:30;8.98;;;3.65;;
24145;SDS011;12308;50.948;4.706;2022-10-16T05:39:56;6.50;;;3.40;;
24145;SDS011;12308;50.948;4.706;2022-10-16T05:42:22;5.80;;;3.22;;
24145;SDS011;12308;50.948;4.706;2022-10-16T05:44:47;13.82;;;3.40;;
24145;SDS011;12308;50.948;4.706;2022-10-16T05:47:13;6.65;;;3.60;;
24145;SDS011;12308;50.948;4.706;2022-10-16T05:49:39;6.95;;;3.38;;
24145;SDS011;12308;50.948;4.706;2022-10-16T05:52:05;5.80;;;3.17;;
24145;SDS011;12308;50.948;4.706;2022-10-16T05:54:31;9.43;;;3.40;;
24145;SDS011;12308;50.948;4.706;2022-10-16T05:56:56;6.95;;;3.30;;
24145;SDS011;12308;50.948;4.706;2022-10-16T05:59:22;7.25;;;3.05;;
24145;SDS011;12308;50.948;4.706;2022-10-16T06:01:48;5.95;;;4.00;;
24145;SDS011;12308;50.948;4.706;2022-10-16T06:04:14;9.98;;;3.47;;
24145;SDS011;12308;50.948;4.706;2022-10-16T06:06:39;6.22;;;3.85;;
24145;SDS011;12308;50.948;4.706;2022-10-16T06:09:05;7.72;;;3.60;;
24145;SDS011;12308;50.948;4.706;2022-10-16T06:11:31;7.68;;;3.80;;
24145;SDS011;12308;50.948;4.706;2022-10-16T06:13:58;9.18;;;3.78;;
24145;SDS011;12308;50.948;4.706;2022-10-16T06:16:32;11.52;;;3.53;;
24145;SDS011;12308;50.948;4.706;2022-10-16T06:19:02;9.25;;;3.70;;
24145;SDS011;12308;50.948;4.706;2022-10-16T06:21:31;6.07;;;3.72;;
24145;SDS011;12308;50.948;4.706;2022-10-16T06:23:57;7.82;;;3.90;;
24145;SDS011;12308;50.948;4.706;2022-10-16T06:26:24;8.15;;;3.75;;
24145;SDS011;12308;50.948;4.706;2022-10-16T06:28:53;7.22;;;3.80;;
24145;SDS011;12308;50.948;4.706;2022-10-16T06:31:19;10.80;;;3.80;;
24145;SDS011;12308;50.948;4.706;2022-10-16T06:33:45;8.85;;;3.85;;
24145;SDS011;12308;50.948;4.706;2022-10-16T06:36:12;10.15;;;4.18;;
24145;SDS011;12308;50.948;4.706;2022-10-16T06:38:40;7.35;;;4.22;;
24145;SDS011;12308;50.948;4.706;2022-10-16T06:41:06;7.72;;;3.97;;
24145;SDS011;12308;50.948;4.706;2022-10-16T06:43:33;7.50;;;3.67;;
24145;SDS011;12308;50.948;4.706;2022-10-16T06:46:02;15.25;;;4.25;;
24145;SDS011;12308;50.948;4.706;2022-10-16T06:48:29;7.28;;;3.85;;
24145;SDS011;12308;50.948;4.706;2022-10-16T06:51:02;7.22;;;3.72;;
24145;SDS011;12308;50.948;4.706;2022-10-16T06:53:31;6.85;;;3.78;;
24145;SDS011;12308;50.948;4.706;2022-10-16T06:56:06;5.32;;;3.60;;
24145;SDS011;12308;50.948;4.706;2022-10-16T06:58:32;8.85;;;3.83;;
24145;SDS011;12308;50.948;4.706;2022-10-16T07:00:58;12.05;;;5.32;;
24145;SDS011;12308;50.948;4.706;2022-10-16T07:03:24;13.48;;;5.10;;
24145;SDS011;12308;50.948;4.706;2022-10-16T07:05:49;5.90;;;3.75;;
24145;SDS011;12308;50.948;4.706;2022-10-16T07:08:15;6.00;;;3.50;;
24145;SDS011;12308;50.948;4.706;2022-10-16T07:10:40;6.53;;;3.35;;
24145;SDS011;12308;50.948;4.706;2022-10-16T07:13:06;8.95;;;3.92;;
24145;SDS011;12308;50.948;4.706;2022-10-16T07:15:32;11.00;;;4.40;;
24145;SDS011;12308;50.948;4.706;2022-10-16T07:17:59;10.30;;;4.72;;
24145;SDS011;12308;50.948;4.706;2022-10-16T07:20:24;9.63;;;4.05;;
24145;SDS011;12308;50.948;4.706;2022-10-16T07:22:50;6.55;;;3.53;;
24145;SDS011;12308;50.948;4.706;2022-10-16T07:25:17;11.27;;;3.78;;
24145;SDS011;12308;50.948;4.706;2022-10-16T07:27:42;7.60;;;3.47;;
24145;SDS011;12308;50.948;4.706;2022-10-16T07:30:08;9.30;;;3.67;;
24145;SDS011;12308;50.948;4.706;2022-10-16T07:32:34;7.05;;;3.28;;
24145;SDS011;12308;50.948;4.706;2022-10-16T07:35:00;7.60;;;3.05;;
24145;SDS011;12308;50.948;4.706;2022-10-16T07:37:25;5.13;;;2.90;;
24145;SDS011;12308;50.948;4.706;2022-10-16T07:39:51;9.93;;;3.17;;
24145;SDS011;12308;50.948;4.706;2022-10-16T07:42:16;9.45;;;2.92;;
24145;SDS011;12308;50.948;4.706;2022-10-16T07:44:42;9.15;;;3.17;;
24145;SDS011;12308;50.948;4.706;2022-10-16T07:47:08;6.97;;;3.22;;
24145;SDS011;12308;50.948;4.706;2022-10-16T07:49:33;9.93;;;3.22;;
24145;SDS011;12308;50.948;4.706;2022-10-16T07:51:59;5.38;;;3.20;;
24145;SDS011;12308;50.948;4.706;2022-10-16T07:54:25;6.80;;;3.50;;
24145;SDS011;12308;50.948;4.706;2022-10-16T07:56:50;10.13;;;3.42;;
24145;SDS011;12308;50.948;4.706;2022-10-16T07:59:16;5.68;;;3.60;;
24145;SDS011;12308;50.948;4.706;2022-10-16T08:01:42;7.85;;;3.20;;
24145;SDS011;12308;50.948;4.706;2022-10-16T08:04:07;10.60;;;2.75;;
24145;SDS011;12308;50.948;4.706;2022-10-16T08:06:37;8.10;;;2.92;;
24145;SDS011;12308;50.948;4.706;2022-10-16T08:09:04;7.32;;;2.90;;
24145;SDS011;12308;50.948;4.706;2022-10-16T08:11:31;6.68;;;2.90;;
24145;SDS011;12308;50.948;4.706;2022-10-16T08:13:57;7.53;;;2.67;;
24145;SDS011;12308;50.948;4.706;2022-10-16T08:16:23;10.65;;;2.67;;
24145;SDS011;12308;50.948;4.706;2022-10-16T08:18:48;8.70;;;2.25;;
24145;SDS011;12308;50.948;4.706;2022-10-16T08:21:17;9.13;;;3.05;;
24145;SDS011;12308;50.948;4.706;2022-10-16T08:23:44;10.02;;;3.75;;
24145;SDS011;12308;50.948;4.706;2022-10-16T08:26:11;7.82;;;2.40;;
24145;SDS011;12308;50.948;4.706;2022-10-16T08:28:37;8.27;;;2.50;;
24145;SDS011;12308;50.948;4.706;2022-10-16T08:31:11;6.35;;;2.10;;
24145;SDS011;12308;50.948;4.706;2022-10-16T08:33:40;5.93;;;2.10;;
24145;SDS011;12308;50.948;4.706;2022-10-16T08:36:07;8.13;;;2.03;;
24145;SDS011;12308;50.948;4.706;2022-10-16T08:38:34;6.00;;;2.30;;
24145;SDS011;12308;50.948;4.706;2022-10-16T08:50:07;6.23;;;1.87;;
24145;SDS011;12308;50.948;4.706;2022-10-16T08:52:35;8.23;;;2.00;;
24145;SDS011;12308;50.948;4.706;2022-10-16T08:55:05;6.72;;;1.70;;
24145;SDS011;12308;50.948;4.706;2022-10-16T08:57:31;9.93;;;1.70;;
24145;SDS011;12308;50.948;4.706;2022-10-16T08:59:59;7.82;;;1.80;;
24145;SDS011;12308;50.948;4.706;2022-10-16T09:02:49;7.05;;;2.00;;
24145;SDS011;12308;50.948;4.706;2022-10-16T09:08:10;6.10;;;1.70;;
24145;SDS011;12308;50.948;4.706;2022-10-16T09:16:36;8.82;;;2.67;;
24145;SDS011;12308;50.948;4.706;2022-10-16T09:19:13;7.47;;;1.48;;
24145;SDS011;12308;50.948;4.706;2022-10-16T09:21:48;9.43;;;1.85;;
24145;SDS011;12308;50.948;4.706;2022-10-16T09:24:14;9.00;;;1.80;;
24145;SDS011;12308;50.948;4.706;2022-10-16T09:26:40;12.15;;;1.95;;
24145;SDS011;12308;50.948;4.706;2022-10-16T09:29:08;7.60;;;1.60;;
24145;SDS011;12308;50.948;4.706;2022-10-16T09:31:38;12.75;;;2.17;;
24145;SDS011;12308;50.948;4.706;2022-10-16T09:34:05;7.45;;;1.67;;
24145;SDS011;12308;50.948;4.706;2022-10-16T09:36:36;6.95;;;1.73;;
24145;SDS011;12308;50.948;4.706;2022-10-16T09:39:07;8.93;;;1.70;;
24145;SDS011;12308;50.948;4.706;2022-10-16T09:41:37;6.57;;;1.60;;
24145;SDS011;12308;50.948;4.706;2022-10-16T09:44:06;9.77;;;1.98;;
24145;SDS011;12308;50.948;4.706;2022-10-16T09:47:06;9.60;;;1.77;;
24145;SDS011;12308;50.948;4.706;2022-10-16T09:49:59;9.18;;;1.38;;
24145;SDS011;12308;50.948;4.706;2022-10-16T09:52:31;6.72;;;1.60;;
24145;SDS011;12308;50.948;4.706;2022-10-16T09:54:58;18.00;;;2.83;;
24145;SDS011;12308;50.948;4.706;2022-10-16T09:57:25;9.02;;;1.58;;
24145;SDS011;12308;50.948;4.706;2022-10-16T09:59:52;7.00;;;1.50;;
24145;SDS011;12308;50.948;4.706;2022-10-16T10:02:22;6.82;;;1.70;;
24145;SDS011;12308;50.948;4.706;2022-10-16T10:05:01;12.73;;;1.65;;
24145;SDS011;12308;50.948;4.706;2022-10-16T10:07:33;12.88;;;1.40;;
24145;SDS011;12308;50.948;4.706;2022-10-16T10:10:05;8.88;;;2.17;;
24145;SDS011;12308;50.948;4.706;2022-10-16T10:12:44;8.60;;;1.45;;
24145;SDS011;12308;50.948;4.706;2022-10-16T10:15:10;7.30;;;1.55;;
24145;SDS011;12308;50.948;4.706;2022-10-16T10:17:48;5.75;;;1.52;;
24145;SDS011;12308;50.948;4.706;2022-10-16T10:30:50;6.75;;;1.77;;
24145;SDS011;12308;50.948;4.706;2022-10-16T10:52:48;8.18;;;1.58;;
24145;SDS011;12308;50.948;4.706;2022-10-16T11:01:16;5.85;;;1.20;;
24145;SDS011;12308;50.948;4.706;2022-10-16T11:06:33;11.05;;;1.20;;
24145;SDS011;12308;50.948;4.706;2022-10-16T11:09:19;10.73;;;1.60;;
24145;SDS011;12308;50.948;4.706;2022-10-16T11:17:07;8.27;;;1.38;;
24145;SDS011;12308;50.948;4.706;2022-10-16T11:19:41;8.85;;;1.23;;
24145;SDS011;12308;50.948;4.706;2022-10-16T11:22:35;10.73;;;1.33;;
24145;SDS011;12308;50.948;4.706;2022-10-16T11:25:32;10.52;;;1.17;;
24145;SDS011;12308;50.948;4.706;2022-10-16T11:30:46;6.40;;;1.35;;
24145;SDS011;12308;50.948;4.706;2022-10-16T11:47:09;3.75;;;1.10;;
24145;SDS011;12308;50.948;4.706;2022-10-16T11:55:21;6.28;;;1.40;;
24145;SDS011;12308;50.948;4.706;2022-10-16T11:58:02;4.18;;;1.27;;
24145;SDS011;12308;50.948;4.706;2022-10-16T12:00:40;6.15;;;1.25;;
24145;SDS011;12308;50.948;4.706;2022-10-16T12:08:26;7.75;;;1.52;;
24145;SDS011;12308;50.948;4.706;2022-10-16T12:10:52;4.95;;;1.30;;
24145;SDS011;12308;50.948;4.706;2022-10-16T12:13:36;5.25;;;1.00;;
24145;SDS011;12308;50.948;4.706;2022-10-16T12:16:19;7.50;;;1.15;;
24145;SDS011;12308;50.948;4.706;2022-10-16T12:18:46;3.92;;;1.10;;
24145;SDS011;12308;50.948;4.706;2022-10-16T12:21:14;2.28;;;1.08;;
24145;SDS011;12308;50.948;4.706;2022-10-16T12:23:51;4.13;;;0.88;;
24145;SDS011;12308;50.948;4.706;2022-10-16T12:26:28;5.13;;;1.00;;
24145;SDS011;12308;50.948;4.706;2022-10-16T12:29:09;5.60;;;1.55;;
24145;SDS011;12308;50.948;4.706;2022-10-16T12:31:37;5.93;;;1.42;;
24145;SDS011;12308;50.948;4.706;2022-10-16T12:36:54;9.80;;;2.47;;
24145;SDS011;12308;50.948;4.706;2022-10-16T12:39:31;4.13;;;1.00;;
24145;SDS011;12308;50.948;4.706;2022-10-16T12:42:02;5.88;;;1.23;;
24145;SDS011;12308;50.948;4.706;2022-10-16T12:44:44;3.15;;;1.10;;
24145;SDS011;12308;50.948;4.706;2022-10-16T12:47:55;5.60;;;1.13;;
24145;SDS011;12308;50.948;4.706;2022-10-16T12:49:56;4.93;;;1.40;;
24145;SDS011;12308;50.948;4.706;2022-10-16T12:52:24;6.40;;;1.17;;
24145;SDS011;12308;50.948;4.706;2022-10-16T12:54:59;3.28;;;1.10;;
24145;SDS011;12308;50.948;4.706;2022-10-16T12:57:32;5.90;;;1.30;;
24145;SDS011;12308;50.948;4.706;2022-10-16T13:00:21;6.05;;;1.50;;
24145;SDS011;12308;50.948;4.706;2022-10-16T13:02:51;8.40;;;1.13;;
24145;SDS011;12308;50.948;4.706;2022-10-16T13:16:57;6.15;;;1.15;;
24145;SDS011;12308;50.948;4.706;2022-10-16T13:19:51;5.45;;;1.08;;
24145;SDS011;12308;50.948;4.706;2022-10-16T13:22:37;6.90;;;1.17;;
24145;SDS011;12308;50.948;4.706;2022-10-16T13:28:27;6.95;;;2.47;;
24145;SDS011;12308;50.948;4.706;2022-10-16T13:30:54;7.70;;;2.60;;
24145;SDS011;12308;50.948;4.706;2022-10-16T13:33:39;5.28;;;4.65;;
24145;SDS011;12308;50.948;4.706;2022-10-16T13:36:17;7.25;;;2.40;;
24145;SDS011;12308;50.948;4.706;2022-10-16T13:38:45;6.55;;;2.03;;
24145;SDS011;12308;50.948;4.706;2022-10-16T13:41:15;8.45;;;1.70;;
24145;SDS011;12308;50.948;4.706;2022-10-16T13:43:43;6.30;;;1.17;;
24145;SDS011;12308;50.948;4.706;2022-10-16T13:46:16;8.25;;;1.40;;
24145;SDS011;12308;50.948;4.706;2022-10-16T13:48:42;3.83;;;1.00;;
24145;SDS011;12308;50.948;4.706;2022-10-16T13:51:16;6.53;;;1.05;;
24145;SDS011;12308;50.948;4.706;2022-10-16T13:53:43;5.68;;;1.20;;
24145;SDS011;12308;50.948;4.706;2022-10-16T13:56:11;5.50;;;1.30;;
24145;SDS011;12308;50.948;4.706;2022-10-16T13:58:38;8.82;;;0.85;;
24145;SDS011;12308;50.948;4.706;2022-10-16T14:01:05;6.57;;;1.15;;
24145;SDS011;12308;50.948;4.706;2022-10-16T14:03:40;10.77;;;1.33;;
24145;SDS011;12308;50.948;4.706;2022-10-16T14:06:11;5.90;;;1.20;;
24145;SDS011;12308;50.948;4.706;2022-10-16T14:08:42;5.32;;;1.23;;
24145;SDS011;12308;50.948;4.706;2022-10-16T14:11:19;5.72;;;1.85;;
24145;SDS011;12308;50.948;4.706;2022-10-16T14:13:49;5.95;;;1.40;;
24145;SDS011;12308;50.948;4.706;2022-10-16T14:16:25;7.20;;;1.67;;
24145;SDS011;12308;50.948;4.706;2022-10-16T14:18:57;7.90;;;1.45;;
24145;SDS011;12308;50.948;4.706;2022-10-16T14:21:26;8.43;;;1.40;;
24145;SDS011;12308;50.948;4.706;2022-10-16T14:23:52;3.60;;;1.30;;
24145;SDS011;12308;50.948;4.706;2022-10-16T14:26:19;6.32;;;1.40;;
24145;SDS011;12308;50.948;4.706;2022-10-16T14:28:47;3.53;;;1.20;;
24145;SDS011;12308;50.948;4.706;2022-10-16T14:31:24;6.05;;;1.30;;
24145;SDS011;12308;50.948;4.706;2022-10-16T14:33:52;3.47;;;1.27;;
24145;SDS011;12308;50.948;4.706;2022-10-16T14:36:18;6.43;;;1.35;;
24145;SDS011;12308;50.948;4.706;2022-10-16T14:41:29;6.85;;;1.35;;
24145;SDS011;12308;50.948;4.706;2022-10-16T14:44:00;5.88;;;1.63;;
24145;SDS011;12308;50.948;4.706;2022-10-16T14:46:30;2.92;;;1.35;;
24145;SDS011;12308;50.948;4.706;2022-10-16T14:49:00;7.18;;;1.60;;
24145;SDS011;12308;50.948;4.706;2022-10-16T14:51:35;7.53;;;1.35;;
24145;SDS011;12308;50.948;4.706;2022-10-16T14:54:02;5.63;;;1.20;;
24145;SDS011;12308;50.948;4.706;2022-10-16T14:57:15;5.18;;;1.42;;
24145;SDS011;12308;50.948;4.706;2022-10-16T14:59:29;6.78;;;1.40;;
24145;SDS011;12308;50.948;4.706;2022-10-16T15:02:24;9.35;;;2.17;;
24145;SDS011;12308;50.948;4.706;2022-10-16T15:04:58;8.00;;;1.63;;
24145;SDS011;12308;50.948;4.706;2022-10-16T15:07:38;5.93;;;1.48;;
24145;SDS011;12308;50.948;4.706;2022-10-16T15:10:04;6.32;;;1.23;;
24145;SDS011;12308;50.948;4.706;2022-10-16T15:12:30;2.47;;;1.00;;
24145;SDS011;12308;50.948;4.706;2022-10-16T15:14:55;7.90;;;1.40;;
24145;SDS011;12308;50.948;4.706;2022-10-16T15:17:21;7.88;;;1.30;;
24145;SDS011;12308;50.948;4.706;2022-10-16T15:19:47;7.15;;;1.90;;
24145;SDS011;12308;50.948;4.706;2022-10-16T15:22:12;6.63;;;1.70;;
24145;SDS011;12308;50.948;4.706;2022-10-16T15:24:38;7.15;;;2.20;;
24145;SDS011;12308;50.948;4.706;2022-10-16T15:27:04;17.35;;;7.18;;
24145;SDS011;12308;50.948;4.706;2022-10-16T15:29:30;11.07;;;4.00;;
24145;SDS011;12308;50.948;4.706;2022-10-16T15:31:56;9.25;;;1.85;;
24145;SDS011;12308;50.948;4.706;2022-10-16T15:34:21;5.22;;;1.30;;
24145;SDS011;12308;50.948;4.706;2022-10-16T15:36:47;9.15;;;2.05;;
24145;SDS011;12308;50.948;4.706;2022-10-16T15:39:16;5.35;;;1.70;;
24145;SDS011;12308;50.948;4.706;2022-10-16T15:41:44;7.07;;;1.40;;
24145;SDS011;12308;50.948;4.706;2022-10-16T15:44:15;5.68;;;1.40;;
24145;SDS011;12308;50.948;4.706;2022-10-16T15:46:42;5.43;;;1.65;;
24145;SDS011;12308;50.948;4.706;2022-10-16T15:49:07;9.10;;;1.90;;
24145;SDS011;12308;50.948;4.706;2022-10-16T15:51:34;7.75;;;1.40;;
24145;SDS011;12308;50.948;4.706;2022-10-16T15:54:03;6.15;;;1.70;;
24145;SDS011;12308;50.948;4.706;2022-10-16T15:56:29;8.85;;;2.63;;
24145;SDS011;12308;50.948;4.706;2022-10-16T15:58:58;10.02;;;2.28;;
24145;SDS011;12308;50.948;4.706;2022-10-16T16:01:27;10.05;;;2.70;;
24145;SDS011;12308;50.948;4.706;2022-10-16T16:03:54;7.15;;;1.90;;
24145;SDS011;12308;50.948;4.706;2022-10-16T16:06:21;4.20;;;1.70;;
24145;SDS011;12308;50.948;4.706;2022-10-16T16:08:48;5.53;;;1.70;;
24145;SDS011;12308;50.948;4.706;2022-10-16T16:11:15;8.38;;;1.67;;
24145;SDS011;12308;50.948;4.706;2022-10-16T16:13:43;6.05;;;1.80;;
24145;SDS011;12308;50.948;4.706;2022-10-16T16:16:10;4.65;;;1.67;;
24145;SDS011;12308;50.948;4.706;2022-10-16T16:18:37;8.10;;;2.25;;
24145;SDS011;12308;50.948;4.706;2022-10-16T16:21:03;12.20;;;3.15;;
24145;SDS011;12308;50.948;4.706;2022-10-16T16:23:29;8.85;;;2.92;;
24145;SDS011;12308;50.948;4.706;2022-10-16T16:26:03;7.72;;;3.03;;
24145;SDS011;12308;50.948;4.706;2022-10-16T16:28:30;14.20;;;7.10;;
24145;SDS011;12308;50.948;4.706;2022-10-16T16:30:55;8.10;;;4.85;;
24145;SDS011;12308;50.948;4.706;2022-10-16T16:33:21;13.70;;;8.68;;
24145;SDS011;12308;50.948;4.706;2022-10-16T16:35:47;7.18;;;3.88;;
24145;SDS011;12308;50.948;4.706;2022-10-16T16:38:12;8.25;;;4.82;;
24145;SDS011;12308;50.948;4.706;2022-10-16T16:40:38;13.27;;;4.97;;
24145;SDS011;12308;50.948;4.706;2022-10-16T16:43:03;9.23;;;4.35;;
24145;SDS011;12308;50.948;4.706;2022-10-16T16:45:29;8.57;;;4.00;;
24145;SDS011;12308;50.948;4.706;2022-10-16T16:47:55;9.80;;;4.15;;
24145;SDS011;12308;50.948;4.706;2022-10-16T16:50:20;8.88;;;3.80;;
24145;SDS011;12308;50.948;4.706;2022-10-16T16:52:46;22.73;;;18.02;;
24145;SDS011;12308;50.948;4.706;2022-10-16T16:55:11;23.27;;;13.20;;
24145;SDS011;12308;50.948;4.706;2022-10-16T16:57:37;19.40;;;9.90;;
24145;SDS011;12308;50.948;4.706;2022-10-16T17:00:03;9.90;;;5.85;;
24145;SDS011;12308;50.948;4.706;2022-10-16T17:02:29;12.45;;;5.93;;
24145;SDS011;12308;50.948;4.706;2022-10-16T17:04:54;10.73;;;4.78;;